sensor_id;sensor_type;location;lat;lon;timestamp;temperature;humidity
25668;DHT22;18003;-33.830;151.202;2023-03-14T00:01:36;23.40;99.90
25668;DHT22;18003;-33.830;151.202;2023-03-14T00:04:06;23.40;99.90
25668;DHT22;18003;-33.830;151.202;2023-03-14T00:06:36;23.40;99.90
25668;DHT22;18003;-33.830;151.202;2023-03-14T00:09:06;23.40;99.90
25668;DHT22;18003;-33.830;151.202;2023-03-14T00:11:37;23.40;99.90
25668;DHT22;18003;-33.830;151.202;2023-03-14T00:14:07;23.40;99.90
25668;DHT22;18003;-33.830;151.202;2023-03-14T00:16:38;23.40;99.90
25668;DHT22;18003;-33.830;151.202;2023-03-14T00:19:07;23.40;99.90
25668;DHT22;18003;-33.830;151.202;2023-03-14T00:21:37;23.30;99.90
25668;DHT22;18003;-33.830;151.202;2023-03-14T00:24:08;23.40;99.90
25668;DHT22;18003;-33.830;151.202;2023-03-14T00:26:39;23.50;99.90
25668;DHT22;18003;-33.830;151.202;2023-03-14T00:29:09;23.70;99.90
25668;DHT22;18003;-33.830;151.202;2023-03-14T00:31:39;24.00;99.90
25668;DHT22;18003;-33.830;151.202;2023-03-14T00:34:09;24.10;99.90
25668;DHT22;18003;-33.830;151.202;2023-03-14T00:36:39;24.10;99.90
25668;DHT22;18003;-33.830;151.202;2023-03-14T00:39:09;24.00;99.90
25668;DHT22;18003;-33.830;151.202;2023-03-14T00:41:39;24.10;99.90
25668;DHT22;18003;-33.830;151.202;2023-03-14T00:44:10;24.40;99.90
25668;DHT22;18003;-33.830;151.202;2023-03-14T00:46:39;24.50;99.90
25668;DHT22;18003;-33.830;151.202;2023-03-14T00:49:09;24.40;99.90
25668;DHT22;18003;-33.830;151.202;2023-03-14T00:51:39;24.30;99.90
25668;DHT22;18003;-33.830;151.202;2023-03-14T00:54:09;24.50;99.90
25668;DHT22;18003;-33.830;151.202;2023-03-14T00:56:39;24.60;99.90
25668;DHT22;18003;-33.830;151.202;2023-03-14T00:59:09;24.70;99.90
25668;DHT22;18003;-33.830;151.202;2023-03-14T01:01:39;24.40;99.90
25668;DHT22;18003;-33.830;151.202;2023-03-14T01:04:10;24.40;99.90
25668;DHT22;18003;-33.830;151.202;2023-03-14T01:06:40;24.50;99.90
25668;DHT22;18003;-33.830;151.202;2023-03-14T01:09:10;24.60;99.90
25668;DHT22;18003;-33.830;151.202;2023-03-14T01:11:40;24.30;99.90
25668;DHT22;18003;-33.830;151.202;2023-03-14T01:14:11;24.10;99.90
25668;DHT22;18003;-33.830;151.202;2023-03-14T01:16:41;24.10;99.90
25668;DHT22;18003;-33.830;151.202;2023-03-14T01:19:11;24.00;99.90
25668;DHT22;18003;-33.830;151.202;2023-03-14T01:21:41;24.00;99.90
25668;DHT22;18003;-33.830;151.202;2023-03-14T01:24:12;23.90;99.90
25668;DHT22;18003;-33.830;151.202;2023-03-14T01:26:42;23.90;99.90
25668;DHT22;18003;-33.830;151.202;2023-03-14T01:29:12;23.90;99.90
25668;DHT22;18003;-33.830;151.202;2023-03-14T01:31:42;23.90;99.90
25668;DHT22;18003;-33.830;151.202;2023-03-14T01:34:12;23.80;99.90
25668;DHT22;18003;-33.830;151.202;2023-03-14T01:36:42;23.80;99.90
25668;DHT22;18003;-33.830;151.202;2023-03-14T01:39:12;23.80;99.90
25668;DHT22;18003;-33.830;151.202;2023-03-14T01:41:42;23.80;99.90
25668;DHT22;18003;-33.830;151.202;2023-03-14T01:44:13;23.80;99.90
25668;DHT22;18003;-33.830;151.202;2023-03-14T01:46:43;23.70;99.90
25668;DHT22;18003;-33.830;151.202;2023-03-14T01:49:31;23.70;99.90
25668;DHT22;18003;-33.830;151.202;2023-03-14T01:52:06;23.80;99.90
25668;DHT22;18003;-33.830;151.202;2023-03-14T01:54:37;23.70;99.90
25668;DHT22;18003;-33.830;151.202;2023-03-14T01:57:14;23.70;99.90
25668;DHT22;18003;-33.830;151.202;2023-03-14T01:59:42;23.70;99.90
25668;DHT22;18003;-33.830;151.202;2023-03-14T02:02:10;23.70;99.90
25668;DHT22;18003;-33.830;151.202;2023-03-14T02:04:41;23.70;99.90
25668;DHT22;18003;-33.830;151.202;2023-03-14T02:07:16;23.70;99.90
25668;DHT22;18003;-33.830;151.202;2023-03-14T02:09:46;23.70;99.90
25668;DHT22;18003;-33.830;151.202;2023-03-14T02:12:16;23.70;99.90
25668;DHT22;18003;-33.830;151.202;2023-03-14T02:14:47;23.70;99.90
25668;DHT22;18003;-33.830;151.202;2023-03-14T02:17:18;23.70;99.90
25668;DHT22;18003;-33.830;151.202;2023-03-14T02:19:57;23.70;99.90
25668;DHT22;18003;-33.830;151.202;2023-03-14T02:22:29;23.70;99.90
25668;DHT22;18003;-33.830;151.202;2023-03-14T02:25:05;23.70;99.90
25668;DHT22;18003;-33.830;151.202;2023-03-14T02:27:34;23.70;99.90
25668;DHT22;18003;-33.830;151.202;2023-03-14T02:30:10;23.60;99.90
25668;DHT22;18003;-33.830;151.202;2023-03-14T02:32:41;23.60;99.90
25668;DHT22;18003;-33.830;151.202;2023-03-14T02:35:13;23.60;99.90
25668;DHT22;18003;-33.830;151.202;2023-03-14T02:37:46;23.60;99.90
25668;DHT22;18003;-33.830;151.202;2023-03-14T02:40:15;23.60;99.90
25668;DHT22;18003;-33.830;151.202;2023-03-14T02:42:45;23.60;99.90
25668;DHT22;18003;-33.830;151.202;2023-03-14T02:47:54;23.60;99.90
25668;DHT22;18003;-33.830;151.202;2023-03-14T02:50:26;23.70;99.90
25668;DHT22;18003;-33.830;151.202;2023-03-14T02:52:56;23.60;99.90
25668;DHT22;18003;-33.830;151.202;2023-03-14T02:55:27;23.60;99.90
25668;DHT22;18003;-33.830;151.202;2023-03-14T02:57:57;23.60;99.90
25668;DHT22;18003;-33.830;151.202;2023-03-14T03:00:27;23.60;99.90
25668;DHT22;18003;-33.830;151.202;2023-03-14T03:02:58;23.60;99.90
25668;DHT22;18003;-33.830;151.202;2023-03-14T03:05:29;23.60;99.90
25668;DHT22;18003;-33.830;151.202;2023-03-14T03:07:59;23.60;99.90
25668;DHT22;18003;-33.830;151.202;2023-03-14T03:10:29;23.60;99.90
25668;DHT22;18003;-33.830;151.202;2023-03-14T03:12:59;23.60;99.90
25668;DHT22;18003;-33.830;151.202;2023-03-14T03:15:29;23.60;99.90
25668;DHT22;18003;-33.830;151.202;2023-03-14T03:17:59;23.50;99.90
25668;DHT22;18003;-33.830;151.202;2023-03-14T03:20:29;23.50;99.90
25668;DHT22;18003;-33.830;151.202;2023-03-14T03:22:59;23.50;99.90
25668;DHT22;18003;-33.830;151.202;2023-03-14T03:25:29;23.50;99.90
25668;DHT22;18003;-33.830;151.202;2023-03-14T03:27:59;23.50;99.90
25668;DHT22;18003;-33.830;151.202;2023-03-14T03:30:29;23.50;99.90
25668;DHT22;18003;-33.830;151.202;2023-03-14T03:33:00;23.50;99.90
25668;DHT22;18003;-33.830;151.202;2023-03-14T03:35:30;23.50;99.90
25668;DHT22;18003;-33.830;151.202;2023-03-14T03:38:00;23.50;99.90
25668;DHT22;18003;-33.830;151.202;2023-03-14T03:40:30;23.50;99.90
25668;DHT22;18003;-33.830;151.202;2023-03-14T03:43:00;23.50;99.90
25668;DHT22;18003;-33.830;151.202;2023-03-14T03:45:31;23.50;99.90
25668;DHT22;18003;-33.830;151.202;2023-03-14T03:48:01;23.50;99.90
25668;DHT22;18003;-33.830;151.202;2023-03-14T03:50:31;23.50;99.90
25668;DHT22;18003;-33.830;151.202;2023-03-14T03:53:01;23.50;99.90
25668;DHT22;18003;-33.830;151.202;2023-03-14T03:55:31;23.50;99.90
25668;DHT22;18003;-33.830;151.202;2023-03-14T03:58:01;23.50;99.90
25668;DHT22;18003;-33.830;151.202;2023-03-14T04:00:31;23.50;99.90
25668;DHT22;18003;-33.830;151.202;2023-03-14T04:03:01;23.50;99.90
25668;DHT22;18003;-33.830;151.202;2023-03-14T04:05:31;23.50;99.90
25668;DHT22;18003;-33.830;151.202;2023-03-14T04:08:02;23.50;99.90
25668;DHT22;18003;-33.830;151.202;2023-03-14T04:10:34;23.50;99.90
25668;DHT22;18003;-33.830;151.202;2023-03-14T04:13:04;23.40;99.90
25668;DHT22;18003;-33.830;151.202;2023-03-14T04:15:34;23.50;99.90
25668;DHT22;18003;-33.830;151.202;2023-03-14T04:18:04;23.50;99.90
25668;DHT22;18003;-33.830;151.202;2023-03-14T04:20:35;23.40;99.90
25668;DHT22;18003;-33.830;151.202;2023-03-14T04:23:05;23.50;99.90
25668;DHT22;18003;-33.830;151.202;2023-03-14T04:25:35;23.50;99.90
25668;DHT22;18003;-33.830;151.202;2023-03-14T04:28:05;23.50;99.90
25668;DHT22;18003;-33.830;151.202;2023-03-14T04:30:35;23.50;99.90
25668;DHT22;18003;-33.830;151.202;2023-03-14T04:33:05;23.50;99.90
25668;DHT22;18003;-33.830;151.202;2023-03-14T04:35:36;23.50;99.90
25668;DHT22;18003;-33.830;151.202;2023-03-14T04:38:06;23.50;99.90
25668;DHT22;18003;-33.830;151.202;2023-03-14T04:40:37;23.50;99.90
25668;DHT22;18003;-33.830;151.202;2023-03-14T04:43:06;23.50;99.90
25668;DHT22;18003;-33.830;151.202;2023-03-14T04:45:36;23.50;99.90
25668;DHT22;18003;-33.830;151.202;2023-03-14T04:48:06;23.50;99.90
25668;DHT22;18003;-33.830;151.202;2023-03-14T04:50:36;23.50;99.90
25668;DHT22;18003;-33.830;151.202;2023-03-14T04:53:08;23.50;99.90
25668;DHT22;18003;-33.830;151.202;2023-03-14T04:55:38;23.50;99.90
25668;DHT22;18003;-33.830;151.202;2023-03-14T04:58:11;23.50;99.90
25668;DHT22;18003;-33.830;151.202;2023-03-14T05:00:41;23.50;99.90
25668;DHT22;18003;-33.830;151.202;2023-03-14T05:03:12;23.50;99.90
25668;DHT22;18003;-33.830;151.202;2023-03-14T05:05:42;23.50;99.90
25668;DHT22;18003;-33.830;151.202;2023-03-14T05:08:12;23.50;99.90
25668;DHT22;18003;-33.830;151.202;2023-03-14T05:10:42;23.50;99.90
25668;DHT22;18003;-33.830;151.202;2023-03-14T05:13:12;23.50;99.90
25668;DHT22;18003;-33.830;151.202;2023-03-14T05:15:42;23.50;99.90
25668;DHT22;18003;-33.830;151.202;2023-03-14T05:18:12;23.50;99.90
25668;DHT22;18003;-33.830;151.202;2023-03-14T05:20:42;23.50;99.90
25668;DHT22;18003;-33.830;151.202;2023-03-14T05:23:12;23.60;99.90
25668;DHT22;18003;-33.830;151.202;2023-03-14T05:25:43;23.50;99.90
25668;DHT22;18003;-33.830;151.202;2023-03-14T05:28:13;23.60;99.90
25668;DHT22;18003;-33.830;151.202;2023-03-14T05:30:43;23.60;99.90
25668;DHT22;18003;-33.830;151.202;2023-03-14T05:33:13;23.50;99.90
25668;DHT22;18003;-33.830;151.202;2023-03-14T05:35:43;23.50;99.90
25668;DHT22;18003;-33.830;151.202;2023-03-14T05:38:14;23.70;99.90
25668;DHT22;18003;-33.830;151.202;2023-03-14T05:40:45;24.00;99.90
25668;DHT22;18003;-33.830;151.202;2023-03-14T05:43:15;24.30;99.90
25668;DHT22;18003;-33.830;151.202;2023-03-14T05:45:45;24.40;99.90
25668;DHT22;18003;-33.830;151.202;2023-03-14T05:48:15;24.20;99.90
25668;DHT22;18003;-33.830;151.202;2023-03-14T05:50:45;24.30;99.90
25668;DHT22;18003;-33.830;151.202;2023-03-14T05:53:15;24.50;99.90
25668;DHT22;18003;-33.830;151.202;2023-03-14T05:55:45;24.60;99.90
25668;DHT22;18003;-33.830;151.202;2023-03-14T05:58:15;24.60;99.90
25668;DHT22;18003;-33.830;151.202;2023-03-14T06:00:45;24.40;99.90
25668;DHT22;18003;-33.830;151.202;2023-03-14T06:03:15;24.50;99.90
25668;DHT22;18003;-33.830;151.202;2023-03-14T06:05:45;24.70;99.90
25668;DHT22;18003;-33.830;151.202;2023-03-14T06:08:15;24.90;99.90
25668;DHT22;18003;-33.830;151.202;2023-03-14T06:10:45;24.90;99.90
25668;DHT22;18003;-33.830;151.202;2023-03-14T06:13:15;24.60;99.90
25668;DHT22;18003;-33.830;151.202;2023-03-14T06:15:45;24.70;99.90
25668;DHT22;18003;-33.830;151.202;2023-03-14T06:18:15;24.90;99.90
25668;DHT22;18003;-33.830;151.202;2023-03-14T06:20:45;25.00;99.90
25668;DHT22;18003;-33.830;151.202;2023-03-14T06:23:15;24.90;99.90
25668;DHT22;18003;-33.830;151.202;2023-03-14T06:25:45;24.70;99.90
25668;DHT22;18003;-33.830;151.202;2023-03-14T06:28:15;24.80;99.90
25668;DHT22;18003;-33.830;151.202;2023-03-14T06:30:45;24.90;99.90
25668;DHT22;18003;-33.830;151.202;2023-03-14T06:33:15;25.00;99.90
25668;DHT22;18003;-33.830;151.202;2023-03-14T06:35:45;24.90;99.90
25668;DHT22;18003;-33.830;151.202;2023-03-14T06:38:15;24.70;99.90
25668;DHT22;18003;-33.830;151.202;2023-03-14T06:40:46;24.90;99.90
25668;DHT22;18003;-33.830;151.202;2023-03-14T06:43:16;25.00;99.90
25668;DHT22;18003;-33.830;151.202;2023-03-14T06:45:46;25.10;99.90
25668;DHT22;18003;-33.830;151.202;2023-03-14T06:48:21;24.90;99.90
25668;DHT22;18003;-33.830;151.202;2023-03-14T06:50:48;24.70;99.90
25668;DHT22;18003;-33.830;151.202;2023-03-14T06:53:18;24.90;99.90
25668;DHT22;18003;-33.830;151.202;2023-03-14T06:55:48;25.10;99.90
25668;DHT22;18003;-33.830;151.202;2023-03-14T06:58:18;25.10;99.90
25668;DHT22;18003;-33.830;151.202;2023-03-14T07:00:48;24.90;99.90
25668;DHT22;18003;-33.830;151.202;2023-03-14T07:03:17;24.80;99.90
25668;DHT22;18003;-33.830;151.202;2023-03-14T07:05:48;24.90;99.90
25668;DHT22;18003;-33.830;151.202;2023-03-14T07:08:18;25.00;99.90
25668;DHT22;18003;-33.830;151.202;2023-03-14T07:10:48;24.90;99.90
25668;DHT22;18003;-33.830;151.202;2023-03-14T07:13:18;24.80;99.90
25668;DHT22;18003;-33.830;151.202;2023-03-14T07:15:48;24.70;99.90
25668;DHT22;18003;-33.830;151.202;2023-03-14T07:18:18;24.90;99.90
25668;DHT22;18003;-33.830;151.202;2023-03-14T07:20:48;25.00;99.90
25668;DHT22;18003;-33.830;151.202;2023-03-14T07:23:18;25.00;99.90
25668;DHT22;18003;-33.830;151.202;2023-03-14T07:25:48;24.70;99.90
25668;DHT22;18003;-33.830;151.202;2023-03-14T07:28:19;24.70;99.90
25668;DHT22;18003;-33.830;151.202;2023-03-14T07:30:49;24.90;99.90
25668;DHT22;18003;-33.830;151.202;2023-03-14T07:33:18;24.90;99.90
25668;DHT22;18003;-33.830;151.202;2023-03-14T07:35:49;24.90;99.90
25668;DHT22;18003;-33.830;151.202;2023-03-14T07:38:19;24.70;99.90
25668;DHT22;18003;-33.830;151.202;2023-03-14T07:40:49;24.70;99.90
25668;DHT22;18003;-33.830;151.202;2023-03-14T07:43:20;24.90;99.90
25668;DHT22;18003;-33.830;151.202;2023-03-14T07:45:50;24.90;99.90
25668;DHT22;18003;-33.830;151.202;2023-03-14T07:48:20;24.90;99.90
25668;DHT22;18003;-33.830;151.202;2023-03-14T07:50:53;24.70;99.90
25668;DHT22;18003;-33.830;151.202;2023-03-14T07:53:23;24.70;99.90
25668;DHT22;18003;-33.830;151.202;2023-03-14T07:55:53;24.90;99.90
25668;DHT22;18003;-33.830;151.202;2023-03-14T07:58:24;24.90;99.90
25668;DHT22;18003;-33.830;151.202;2023-03-14T08:00:54;24.80;99.90
25668;DHT22;18003;-33.830;151.202;2023-03-14T08:03:24;24.60;99.90
25668;DHT22;18003;-33.830;151.202;2023-03-14T08:05:54;24.70;99.90
25668;DHT22;18003;-33.830;151.202;2023-03-14T08:08:24;24.90;99.90
25668;DHT22;18003;-33.830;151.202;2023-03-14T08:10:54;24.90;99.90
25668;DHT22;18003;-33.830;151.202;2023-03-14T08:13:24;24.80;99.90
25668;DHT22;18003;-33.830;151.202;2023-03-14T08:15:54;24.50;99.90
25668;DHT22;18003;-33.830;151.202;2023-03-14T08:18:24;24.70;99.90
25668;DHT22;18003;-33.830;151.202;2023-03-14T08:20:54;24.90;99.90
25668;DHT22;18003;-33.830;151.202;2023-03-14T08:23:24;24.90;99.90
25668;DHT22;18003;-33.830;151.202;2023-03-14T08:25:54;24.70;99.90
25668;DHT22;18003;-33.830;151.202;2023-03-14T08:28:24;24.60;99.90
25668;DHT22;18003;-33.830;151.202;2023-03-14T08:31:01;24.70;99.90
25668;DHT22;18003;-33.830;151.202;2023-03-14T08:33:27;24.90;99.90
25668;DHT22;18003;-33.830;151.202;2023-03-14T08:35:58;24.90;99.90
25668;DHT22;18003;-33.830;151.202;2023-03-14T08:38:28;24.70;99.90
25668;DHT22;18003;-33.830;151.202;2023-03-14T08:40:59;24.60;99.90
25668;DHT22;18003;-33.830;151.202;2023-03-14T08:43:30;24.70;99.90
25668;DHT22;18003;-33.830;151.202;2023-03-14T08:46:01;24.90;99.90
25668;DHT22;18003;-33.830;151.202;2023-03-14T08:48:29;24.90;99.90
25668;DHT22;18003;-33.830;151.202;2023-03-14T08:51:07;24.60;99.90
25668;DHT22;18003;-33.830;151.202;2023-03-14T08:53:37;24.60;99.90
25668;DHT22;18003;-33.830;151.202;2023-03-14T08:56:08;24.80;99.90
25668;DHT22;18003;-33.830;151.202;2023-03-14T08:58:38;24.90;99.90
25668;DHT22;18003;-33.830;151.202;2023-03-14T09:01:10;24.80;99.90
25668;DHT22;18003;-33.830;151.202;2023-03-14T09:03:39;24.60;99.90
25668;DHT22;18003;-33.830;151.202;2023-03-14T09:06:10;24.60;99.90
25668;DHT22;18003;-33.830;151.202;2023-03-14T09:08:40;24.80;99.90
25668;DHT22;18003;-33.830;151.202;2023-03-14T09:11:10;24.90;99.90
25668;DHT22;18003;-33.830;151.202;2023-03-14T09:13:40;24.80;99.90
25668;DHT22;18003;-33.830;151.202;2023-03-14T09:16:10;24.60;99.90
25668;DHT22;18003;-33.830;151.202;2023-03-14T09:18:40;24.40;99.90
25668;DHT22;18003;-33.830;151.202;2023-03-14T09:21:10;24.30;99.90
25668;DHT22;18003;-33.830;151.202;2023-03-14T09:23:40;24.30;99.90
25668;DHT22;18003;-33.830;151.202;2023-03-14T09:26:09;24.50;99.90
25668;DHT22;18003;-33.830;151.202;2023-03-14T09:28:39;24.50;99.90
25668;DHT22;18003;-33.830;151.202;2023-03-14T09:31:10;24.30;99.90
25668;DHT22;18003;-33.830;151.202;2023-03-14T09:33:40;24.20;99.90
25668;DHT22;18003;-33.830;151.202;2023-03-14T09:36:10;24.20;99.90
25668;DHT22;18003;-33.830;151.202;2023-03-14T09:38:40;24.30;99.90
25668;DHT22;18003;-33.830;151.202;2023-03-14T09:41:37;24.40;99.90
25668;DHT22;18003;-33.830;151.202;2023-03-14T09:44:30;24.20;99.90
25668;DHT22;18003;-33.830;151.202;2023-03-14T09:46:58;24.20;99.90
25668;DHT22;18003;-33.830;151.202;2023-03-14T09:49:43;24.10;99.90
25668;DHT22;18003;-33.830;151.202;2023-03-14T09:52:35;24.30;99.90
25668;DHT22;18003;-33.830;151.202;2023-03-14T09:55:13;24.30;99.90
25668;DHT22;18003;-33.830;151.202;2023-03-14T09:57:44;24.20;99.90
25668;DHT22;18003;-33.830;151.202;2023-03-14T10:00:20;24.10;99.90
25668;DHT22;18003;-33.830;151.202;2023-03-14T10:05:43;24.30;99.90
25668;DHT22;18003;-33.830;151.202;2023-03-14T10:08:13;24.30;99.90
25668;DHT22;18003;-33.830;151.202;2023-03-14T10:10:44;24.10;99.90
25668;DHT22;18003;-33.830;151.202;2023-03-14T10:13:19;24.10;99.90
25668;DHT22;18003;-33.830;151.202;2023-03-14T10:18:28;24.20;99.90
25668;DHT22;18003;-33.830;151.202;2023-03-14T10:21:26;24.30;99.90
25668;DHT22;18003;-33.830;151.202;2023-03-14T10:24:20;24.10;99.90
25668;DHT22;18003;-33.830;151.202;2023-03-14T10:26:57;24.00;99.90
25668;DHT22;18003;-33.830;151.202;2023-03-14T10:29:21;24.00;99.90
25668;DHT22;18003;-33.830;151.202;2023-03-14T10:31:56;24.30;99.90
25668;DHT22;18003;-33.830;151.202;2023-03-14T10:34:27;24.30;99.90
25668;DHT22;18003;-33.830;151.202;2023-03-14T10:37:07;24.10;99.90
25668;DHT22;18003;-33.830;151.202;2023-03-14T10:39:47;24.00;99.90
25668;DHT22;18003;-33.830;151.202;2023-03-14T10:42:28;24.00;99.90
25668;DHT22;18003;-33.830;151.202;2023-03-14T10:45:01;24.20;99.90
25668;DHT22;18003;-33.830;151.202;2023-03-14T10:47:33;24.20;99.90
25668;DHT22;18003;-33.830;151.202;2023-03-14T10:50:24;24.10;99.90
25668;DHT22;18003;-33.830;151.202;2023-03-14T10:52:33;24.00;99.90
25668;DHT22;18003;-33.830;151.202;2023-03-14T10:55:08;24.00;99.90
25668;DHT22;18003;-33.830;151.202;2023-03-14T10:57:43;24.10;99.90
25668;DHT22;18003;-33.830;151.202;2023-03-14T11:00:19;24.20;99.90
25668;DHT22;18003;-33.830;151.202;2023-03-14T11:05:32;24.00;99.90
25668;DHT22;18003;-33.830;151.202;2023-03-14T11:08:23;24.00;99.90
25668;DHT22;18003;-33.830;151.202;2023-03-14T11:11:02;24.10;99.90
25668;DHT22;18003;-33.830;151.202;2023-03-14T11:19:03;24.00;99.90
25668;DHT22;18003;-33.830;151.202;2023-03-14T11:24:24;24.10;99.90
25668;DHT22;18003;-33.830;151.202;2023-03-14T11:26:53;24.20;99.90
25668;DHT22;18003;-33.830;151.202;2023-03-14T11:29:44;24.10;99.90
25668;DHT22;18003;-33.830;151.202;2023-03-14T11:34:50;23.90;99.90
25668;DHT22;18003;-33.830;151.202;2023-03-14T11:42:44;24.00;99.90
25668;DHT22;18003;-33.830;151.202;2023-03-14T11:45:18;23.90;99.90
25668;DHT22;18003;-33.830;151.202;2023-03-14T11:47:49;23.80;99.90
25668;DHT22;18003;-33.830;151.202;2023-03-14T11:50:21;23.80;99.90
25668;DHT22;18003;-33.830;151.202;2023-03-14T11:53:01;23.80;99.90
25668;DHT22;18003;-33.830;151.202;2023-03-14T12:00:41;23.70;99.90
25668;DHT22;18003;-33.830;151.202;2023-03-14T12:08:52;23.70;99.90
25668;DHT22;18003;-33.830;151.202;2023-03-14T12:14:02;23.60;99.90
25668;DHT22;18003;-33.830;151.202;2023-03-14T12:16:39;23.70;99.90
25668;DHT22;18003;-33.830;151.202;2023-03-14T12:19:24;23.60;99.90
25668;DHT22;18003;-33.830;151.202;2023-03-14T12:21:58;23.60;99.90
25668;DHT22;18003;-33.830;151.202;2023-03-14T12:24:26;23.60;99.90
25668;DHT22;18003;-33.830;151.202;2023-03-14T12:27:00;23.60;99.90
25668;DHT22;18003;-33.830;151.202;2023-03-14T12:29:31;23.60;99.90
25668;DHT22;18003;-33.830;151.202;2023-03-14T12:32:22;23.60;99.90
25668;DHT22;18003;-33.830;151.202;2023-03-14T12:34:52;23.60;99.90
25668;DHT22;18003;-33.830;151.202;2023-03-14T12:40:19;23.60;99.90
25668;DHT22;18003;-33.830;151.202;2023-03-14T12:42:54;23.60;99.90
25668;DHT22;18003;-33.830;151.202;2023-03-14T12:45:33;23.60;99.90
25668;DHT22;18003;-33.830;151.202;2023-03-14T12:51:05;23.50;99.90
25668;DHT22;18003;-33.830;151.202;2023-03-14T12:59:13;23.50;99.90
25668;DHT22;18003;-33.830;151.202;2023-03-14T13:01:47;23.50;99.90
25668;DHT22;18003;-33.830;151.202;2023-03-14T13:04:18;23.50;99.90
25668;DHT22;18003;-33.830;151.202;2023-03-14T13:06:52;23.50;99.90
25668;DHT22;18003;-33.830;151.202;2023-03-14T13:12:11;23.50;99.90
25668;DHT22;18003;-33.830;151.202;2023-03-14T13:14:47;23.40;99.90
25668;DHT22;18003;-33.830;151.202;2023-03-14T13:17:26;23.40;99.90
25668;DHT22;18003;-33.830;151.202;2023-03-14T13:19:56;23.40;99.90
25668;DHT22;18003;-33.830;151.202;2023-03-14T13:22:27;23.40;99.90
25668;DHT22;18003;-33.830;151.202;2023-03-14T13:25:03;23.30;99.90
25668;DHT22;18003;-33.830;151.202;2023-03-14T13:27:34;23.30;99.90
25668;DHT22;18003;-33.830;151.202;2023-03-14T13:30:20;23.30;99.90
25668;DHT22;18003;-33.830;151.202;2023-03-14T13:32:46;23.30;99.90
25668;DHT22;18003;-33.830;151.202;2023-03-14T13:35:18;23.30;99.90
25668;DHT22;18003;-33.830;151.202;2023-03-14T13:37:51;23.30;99.90
25668;DHT22;18003;-33.830;151.202;2023-03-14T13:40:28;23.30;99.90
25668;DHT22;18003;-33.830;151.202;2023-03-14T13:43:14;23.30;99.90
25668;DHT22;18003;-33.830;151.202;2023-03-14T13:45:44;23.30;99.90
25668;DHT22;18003;-33.830;151.202;2023-03-14T13:48:13;23.40;99.90
25668;DHT22;18003;-33.830;151.202;2023-03-14T13:50:53;23.30;99.90
25668;DHT22;18003;-33.830;151.202;2023-03-14T13:53:19;23.30;99.90
25668;DHT22;18003;-33.830;151.202;2023-03-14T13:55:50;23.30;99.90
25668;DHT22;18003;-33.830;151.202;2023-03-14T13:58:25;23.30;99.90
25668;DHT22;18003;-33.830;151.202;2023-03-14T14:00:59;23.30;99.90
25668;DHT22;18003;-33.830;151.202;2023-03-14T14:03:31;23.30;99.90
25668;DHT22;18003;-33.830;151.202;2023-03-14T14:06:02;23.30;99.90
25668;DHT22;18003;-33.830;151.202;2023-03-14T14:08:33;23.30;99.90
25668;DHT22;18003;-33.830;151.202;2023-03-14T14:11:03;23.30;99.90
25668;DHT22;18003;-33.830;151.202;2023-03-14T14:13:34;23.30;99.90
25668;DHT22;18003;-33.830;151.202;2023-03-14T14:16:05;23.20;99.90
25668;DHT22;18003;-33.830;151.202;2023-03-14T14:18:36;23.20;99.90
25668;DHT22;18003;-33.830;151.202;2023-03-14T14:21:06;23.20;99.90
25668;DHT22;18003;-33.830;151.202;2023-03-14T14:23:38;23.20;99.90
25668;DHT22;18003;-33.830;151.202;2023-03-14T14:26:12;23.20;99.90
25668;DHT22;18003;-33.830;151.202;2023-03-14T14:28:39;23.20;99.90
25668;DHT22;18003;-33.830;151.202;2023-03-14T14:31:20;23.20;99.90
25668;DHT22;18003;-33.830;151.202;2023-03-14T14:34:01;23.20;99.90
25668;DHT22;18003;-33.830;151.202;2023-03-14T14:36:40;23.20;99.90
25668;DHT22;18003;-33.830;151.202;2023-03-14T14:41:48;23.20;99.90
25668;DHT22;18003;-33.830;151.202;2023-03-14T14:44:28;23.20;99.90
25668;DHT22;18003;-33.830;151.202;2023-03-14T14:46:54;23.20;99.90
25668;DHT22;18003;-33.830;151.202;2023-03-14T14:49:28;23.20;99.90
25668;DHT22;18003;-33.830;151.202;2023-03-14T14:52:09;23.20;99.90
25668;DHT22;18003;-33.830;151.202;2023-03-14T14:54:42;23.20;99.90
25668;DHT22;18003;-33.830;151.202;2023-03-14T14:57:12;23.20;99.90
25668;DHT22;18003;-33.830;151.202;2023-03-14T14:59:41;23.20;99.90
25668;DHT22;18003;-33.830;151.202;2023-03-14T15:02:32;23.20;99.90
25668;DHT22;18003;-33.830;151.202;2023-03-14T15:04:41;23.20;99.90
25668;DHT22;18003;-33.830;151.202;2023-03-14T15:07:11;23.10;99.90
25668;DHT22;18003;-33.830;151.202;2023-03-14T15:09:42;23.20;99.90
25668;DHT22;18003;-33.830;151.202;2023-03-14T15:12:13;23.20;99.90
25668;DHT22;18003;-33.830;151.202;2023-03-14T15:14:43;23.10;99.90
25668;DHT22;18003;-33.830;151.202;2023-03-14T15:17:13;23.10;99.90
25668;DHT22;18003;-33.830;151.202;2023-03-14T15:19:43;23.10;99.90
25668;DHT22;18003;-33.830;151.202;2023-03-14T15:22:13;23.10;99.90
25668;DHT22;18003;-33.830;151.202;2023-03-14T15:24:43;23.10;99.90
25668;DHT22;18003;-33.830;151.202;2023-03-14T15:27:14;23.10;99.90
25668;DHT22;18003;-33.830;151.202;2023-03-14T15:29:45;23.10;99.90
25668;DHT22;18003;-33.830;151.202;2023-03-14T15:32:16;23.10;99.90
25668;DHT22;18003;-33.830;151.202;2023-03-14T15:34:46;23.10;99.90
25668;DHT22;18003;-33.830;151.202;2023-03-14T15:37:17;23.10;99.90
25668;DHT22;18003;-33.830;151.202;2023-03-14T15:39:47;23.10;99.90
25668;DHT22;18003;-33.830;151.202;2023-03-14T15:42:17;23.10;99.90
25668;DHT22;18003;-33.830;151.202;2023-03-14T15:44:47;23.10;99.90
25668;DHT22;18003;-33.830;151.202;2023-03-14T15:47:17;23.10;99.90
25668;DHT22;18003;-33.830;151.202;2023-03-14T15:49:47;23.10;99.90
25668;DHT22;18003;-33.830;151.202;2023-03-14T15:52:17;23.10;99.90
25668;DHT22;18003;-33.830;151.202;2023-03-14T15:54:47;23.10;99.90
25668;DHT22;18003;-33.830;151.202;2023-03-14T15:57:18;23.10;99.90
25668;DHT22;18003;-33.830;151.202;2023-03-14T15:59:48;23.10;99.90
25668;DHT22;18003;-33.830;151.202;2023-03-14T16:02:18;23.10;99.90
25668;DHT22;18003;-33.830;151.202;2023-03-14T16:04:48;23.10;99.90
25668;DHT22;18003;-33.830;151.202;2023-03-14T16:07:18;23.10;99.90
25668;DHT22;18003;-33.830;151.202;2023-03-14T16:09:48;23.10;99.90
25668;DHT22;18003;-33.830;151.202;2023-03-14T16:12:18;23.10;99.90